Time;durP1;ratioP1;P1;durP2;ratioP2;P2;SDS_P1;SDS_P2;PMS_P1;PMS_P2;Temp;Humidity;BMP_temperature;BMP_pressure;BME280_temperature;BME280_humidity;BME280_pressure;Samples;Min_cycle;Max_cycle;Signal;HPM_P1;HPM_P2
2021/11/03 00:01:50;;;;;;;0.45;0.45;;;21.00;53.30;;;;;;5079197;28;20439;-41
2021/11/03 00:04:17;;;;;;;1.08;0.43;;;21.00;53.40;;;;;;5074742;28;20046;-39
2021/11/03 00:06:45;;;;;;;1.67;0.40;;;21.10;53.40;;;;;;5074894;28;20048;-40
2021/11/03 00:09:13;;;;;;;1.33;0.32;;;21.00;53.30;;;;;;5078749;28;20137;-40
2021/11/03 00:11:41;;;;;;;0.50;0.30;;;21.00;53.40;;;;;;5080101;28;20033;-40
2021/11/03 00:14:09;;;;;;;2.50;0.40;;;21.00;53.40;;;;;;5085076;28;20047;-39
2021/11/03 00:16:36;;;;;;;0.70;0.47;;;21.00;53.40;;;;;;5073901;28;20048;-40
2021/11/03 00:19:03;;;;;;;3.47;0.40;;;21.00;53.40;;;;;;5077338;28;20044;-40
2021/11/03 00:21:30;;;;;;;3.42;0.60;;;21.00;53.40;;;;;;5077160;28;20047;-40
2021/11/03 00:23:57;;;;;;;0.50;0.13;;;20.90;53.60;;;;;;5077082;28;20064;-40
2021/11/03 00:26:24;;;;;;;1.08;0.20;;;21.00;53.40;;;;;;5077930;28;20118;-40
2021/11/03 00:28:53;;;;;;;0.70;0.20;;;21.00;53.50;;;;;;5079480;28;20036;-40
2021/11/03 00:31:20;;;;;;;4.00;0.63;;;21.00;53.50;;;;;;5075917;28;20074;-40
2021/11/03 00:33:48;;;;;;;4.78;0.20;;;21.00;53.80;;;;;;5077714;28;20156;-40
2021/11/03 00:36:15;;;;;;;0.82;0.10;;;21.00;53.80;;;;;;5073842;28;20034;-40
2021/11/03 00:38:42;;;;;;;3.72;0.45;;;21.00;53.90;;;;;;5077622;28;26111;-40
2021/11/03 00:41:10;;;;;;;1.42;0.30;;;20.90;53.90;;;;;;5082505;28;20048;-40
2021/11/03 00:43:37;;;;;;;0.20;0.10;;;21.00;54.00;;;;;;5074137;28;20044;-40
2021/11/03 00:46:06;;;;;;;1.58;0.20;;;20.90;54.00;;;;;;5073820;28;20512;-40
2021/11/03 00:48:33;;;;;;;0.40;0.28;;;20.90;53.90;;;;;;5078545;28;20468;-40
2021/11/03 00:51:01;;;;;;;0.20;0.20;;;21.00;54.00;;;;;;5078014;28;20458;-40
2021/11/03 00:53:28;;;;;;;0.10;0.10;;;20.90;53.90;;;;;;5079877;28;20127;-40
2021/11/03 00:55:56;;;;;;;0.95;0.20;;;20.90;53.90;;;;;;5080601;28;20458;-40
2021/11/03 00:58:23;;;;;;;0.38;0.20;;;20.90;53.90;;;;;;5072683;28;20612;-40
2021/11/03 01:00:50;;;;;;;1.30;0.30;;;20.90;53.80;;;;;;5060672;28;20075;-41
2021/11/03 01:03:19;;;;;;;0.68;0.20;;;20.90;53.80;;;;;;5077610;28;20511;-40
2021/11/03 01:05:46;;;;;;;0.15;0.10;;;20.90;53.80;;;;;;5072149;28;20045;-40
2021/11/03 01:08:14;;;;;;;0.20;0.10;;;20.90;53.80;;;;;;5086628;28;20055;-40
2021/11/03 01:10:44;;;;;;;1.75;0.20;;;20.90;53.70;;;;;;5077546;28;20044;-40
2021/11/03 01:13:11;;;;;;;1.33;0.30;;;20.90;53.80;;;;;;5072667;28;20040;-40
2021/11/03 01:15:39;;;;;;;1.58;0.20;;;20.90;53.70;;;;;;5077741;28;20040;-40
2021/11/03 01:18:06;;;;;;;0.28;0.13;;;21.00;53.80;;;;;;5067968;28;20055;-40
2021/11/03 01:20:36;;;;;;;0.20;0.20;;;20.90;53.80;;;;;;5079559;28;20122;-40
2021/11/03 01:23:05;;;;;;;0.20;0.20;;;20.90;53.80;;;;;;5080520;28;20097;-40
2021/11/03 01:25:32;;;;;;;0.32;0.32;;;20.90;53.80;;;;;;5070833;28;20050;-41
2021/11/03 01:27:59;;;;;;;1.42;0.20;;;20.90;53.70;;;;;;5075016;28;20058;-41
2021/11/03 01:30:26;;;;;;;0.17;0.10;;;20.90;53.70;;;;;;5074129;28;20067;-40
2021/11/03 01:32:56;;;;;;;1.10;0.30;;;20.90;53.70;;;;;;5077027;28;20042;-40
2021/11/03 01:35:26;;;;;;;0.43;0.10;;;20.90;53.70;;;;;;5079022;28;20035;-40
2021/11/03 01:37:56;;;;;;;0.57;0.20;;;20.90;53.70;;;;;;5087383;28;20056;-40
2021/11/03 01:40:27;;;;;;;0.55;0.13;;;20.90;53.70;;;;;;5071751;28;20051;-40
2021/11/03 01:42:54;;;;;;;0.20;0.10;;;20.90;54.00;;;;;;5076595;28;20074;-40
2021/11/03 01:45:25;;;;;;;0.10;0.10;;;20.90;54.30;;;;;;5079226;28;20051;-40
2021/11/03 01:47:58;;;;;;;0.30;0.10;;;20.90;53.70;;;;;;5077259;28;20048;-40
2021/11/03 01:50:34;;;;;;;0.40;0.10;;;20.90;53.70;;;;;;5077453;28;20044;-40
2021/11/03 01:53:09;;;;;;;0.10;0.10;;;20.90;53.70;;;;;;5077536;28;20036;-40
2021/11/03 01:55:40;;;;;;;1.85;0.10;;;20.80;53.70;;;;;;5074464;28;20165;-40
2021/11/03 01:58:12;;;;;;;0.10;0.00;;;20.90;53.80;;;;;;5073709;28;20040;-40
2021/11/03 02:00:42;;;;;;;0.25;0.10;;;20.90;53.70;;;;;;5075426;28;20584;-40
2021/11/03 02:03:14;;;;;;;0.30;0.17;;;20.80;53.70;;;;;;5077084;28;20947;-40
2021/11/03 02:05:46;;;;;;;0.75;0.10;;;20.80;53.70;;;;;;5076240;28;20052;-40
2021/11/03 02:08:15;;;;;;;0.65;0.65;;;20.80;53.70;;;;;;5093951;28;20055;-40
2021/11/03 02:10:43;;;;;;;0.28;0.10;;;20.80;53.70;;;;;;5078233;28;20081;-40
2021/11/03 02:13:12;;;;;;;0.95;0.50;;;20.80;53.70;;;;;;5074696;28;20116;-40
2021/11/03 02:15:40;;;;;;;0.17;0.10;;;20.80;54.30;;;;;;5076628;28;20036;-40
2021/11/03 02:18:11;;;;;;;0.10;0.10;;;20.80;53.70;;;;;;5076926;28;20122;-40
2021/11/03 02:20:41;;;;;;;0.20;0.10;;;20.80;53.70;;;;;;5076595;28;20049;-40
2021/11/03 02:23:18;;;;;;;0.50;0.10;;;20.80;53.60;;;;;;5075817;28;20459;-40
2021/11/03 02:25:50;;;;;;;0.40;0.10;;;20.80;53.60;;;;;;5077629;28;20199;-40
2021/11/03 02:28:18;;;;;;;0.30;0.10;;;20.80;54.20;;;;;;5075829;28;20058;-40
2021/11/03 02:30:46;;;;;;;0.75;0.40;;;20.80;53.70;;;;;;5077082;28;20044;-40
2021/11/03 02:33:20;;;;;;;2.05;0.10;;;20.80;53.60;;;;;;5074240;28;20685;-40
2021/11/03 02:35:53;;;;;;;2.08;0.43;;;20.80;53.50;;;;;;5073081;28;20794;-40
2021/11/03 02:38:28;;;;;;;0.57;0.10;;;20.80;53.50;;;;;;5080347;28;20131;-40
2021/11/03 02:41:03;;;;;;;0.28;0.10;;;20.80;53.50;;;;;;5076074;28;20105;-40
2021/11/03 02:43:38;;;;;;;0.30;0.10;;;20.80;53.50;;;;;;5072615;28;20428;-40
2021/11/03 02:46:06;;;;;;;0.20;0.10;;;20.80;53.50;;;;;;5074624;28;20080;-41
2021/11/03 02:48:34;;;;;;;0.10;0.10;;;20.80;53.50;;;;;;5072543;28;20036;-40
2021/11/03 02:51:07;;;;;;;1.00;0.10;;;20.80;53.50;;;;;;5079532;28;20539;-40
2021/11/03 02:53:38;;;;;;;0.13;0.10;;;20.80;53.50;;;;;;5076177;28;20050;-40
2021/11/03 02:56:08;;;;;;;0.85;0.10;;;20.70;53.40;;;;;;5078254;28;20152;-40
2021/11/03 02:58:36;;;;;;;0.10;0.10;;;20.80;53.40;;;;;;5075950;28;20064;-40
2021/11/03 03:01:15;;;;;;;0.38;0.10;;;20.70;53.40;;;;;;5059416;28;20056;-40
2021/11/03 03:03:44;;;;;;;0.10;0.10;;;20.80;53.40;;;;;;5070960;28;20033;-40
2021/11/03 03:06:22;;;;;;;0.10;0.10;;;20.80;53.40;;;;;;5078353;28;20049;-40
2021/11/03 03:08:50;;;;;;;0.30;0.10;;;20.80;53.40;;;;;;5080113;28;20114;-40
2021/11/03 03:11:19;;;;;;;0.17;0.10;;;20.70;53.40;;;;;;5083865;28;20040;-40
2021/11/03 03:13:49;;;;;;;0.70;0.10;;;20.70;53.40;;;;;;5080145;28;20036;-40
2021/11/03 03:16:16;;;;;;;1.85;0.10;;;20.70;53.40;;;;;;5078088;28;20040;-40
2021/11/03 03:18:43;;;;;;;0.20;0.10;;;20.70;53.40;;;;;;5075812;28;20558;-40
2021/11/03 03:21:11;;;;;;;0.10;0.10;;;20.70;53.40;;;;;;5081845;28;20032;-41
2021/11/03 03:23:39;;;;;;;0.10;0.10;;;20.70;53.40;;;;;;5080818;28;20088;-40
2021/11/03 03:26:08;;;;;;;0.25;0.25;;;20.70;53.40;;;;;;5080240;28;20071;-40
2021/11/03 03:28:37;;;;;;;0.28;0.10;;;20.70;53.40;;;;;;5074000;28;20062;-40
2021/11/03 03:31:05;;;;;;;0.10;0.10;;;20.70;53.30;;;;;;5079388;28;20040;-40
2021/11/03 03:33:32;;;;;;;0.85;0.10;;;20.80;53.40;;;;;;5082296;28;20036;-40
2021/11/03 03:35:59;;;;;;;0.10;0.10;;;20.70;53.30;;;;;;5081591;28;20520;-41
2021/11/03 03:38:28;;;;;;;2.55;0.10;;;20.70;53.30;;;;;;5077725;28;20083;-40
2021/11/03 03:40:55;;;;;;;0.10;0.10;;;20.70;53.30;;;;;;5082776;28;20408;-40
2021/11/03 03:43:22;;;;;;;0.20;0.10;;;20.70;53.30;;;;;;5078388;28;20044;-40
2021/11/03 03:45:51;;;;;;;1.17;0.28;;;20.70;53.30;;;;;;5078988;28;20040;-40
2021/11/03 03:48:18;;;;;;;0.30;0.30;;;20.70;53.30;;;;;;5075810;28;20048;-40
2021/11/03 03:50:45;;;;;;;0.55;0.15;;;20.70;53.30;;;;;;5077062;28;20029;-40
2021/11/03 03:53:13;;;;;;;0.10;0.10;;;20.70;53.30;;;;;;5081128;28;20067;-40
2021/11/03 03:55:41;;;;;;;0.10;0.10;;;20.70;53.30;;;;;;5075892;28;20404;-40
2021/11/03 03:58:09;;;;;;;0.47;0.47;;;20.70;53.30;;;;;;5075669;28;20044;-41
2021/11/03 04:00:37;;;;;;;0.10;0.10;;;20.70;53.30;;;;;;5078996;28;20471;-40
2021/11/03 04:03:06;;;;;;;0.20;0.10;;;20.70;53.30;;;;;;5079289;28;20416;-40
2021/11/03 04:05:34;;;;;;;0.10;0.10;;;20.70;53.20;;;;;;5080019;28;20040;-40
2021/11/03 04:08:01;;;;;;;2.85;0.00;;;20.70;53.20;;;;;;5087229;28;20059;-40
2021/11/03 04:10:28;;;;;;;0.50;0.10;;;20.70;53.30;;;;;;5074855;28;20556;-40
2021/11/03 04:12:55;;;;;;;0.10;0.10;;;20.70;53.20;;;;;;5078719;28;20037;-40
2021/11/03 04:15:22;;;;;;;0.98;0.10;;;20.60;53.20;;;;;;5080332;28;20032;-40
2021/11/03 04:17:50;;;;;;;0.75;0.47;;;20.70;53.20;;;;;;5076574;28;20078;-40
2021/11/03 04:20:18;;;;;;;0.10;0.10;;;20.70;53.20;;;;;;5078555;28;20432;-40
2021/11/03 04:22:45;;;;;;;0.63;0.10;;;20.60;53.10;;;;;;5078828;28;20036;-40
2021/11/03 04:25:14;;;;;;;0.00;0.00;;;20.70;53.20;;;;;;5075367;28;20097;-40
2021/11/03 04:27:43;;;;;;;0.95;0.10;;;20.60;53.10;;;;;;5078782;28;20036;-40
2021/11/03 04:30:14;;;;;;;0.10;0.10;;;20.70;53.20;;;;;;5074035;28;20036;-40
2021/11/03 04:32:41;;;;;;;0.20;0.00;;;20.70;53.20;;;;;;5079726;28;20091;-40
2021/11/03 04:35:09;;;;;;;0.30;0.10;;;20.70;53.20;;;;;;5082129;28;20046;-40
2021/11/03 04:37:38;;;;;;;0.20;0.20;;;20.70;53.20;;;;;;5074812;28;20048;-40
2021/11/03 04:40:08;;;;;;;0.93;0.10;;;20.70;53.20;;;;;;5076489;28;20424;-40
2021/11/03 04:42:35;;;;;;;1.27;0.10;;;20.60;53.20;;;;;;5078861;28;20101;-40
2021/11/03 04:45:03;;;;;;;0.10;0.10;;;20.70;53.20;;;;;;5078261;28;20047;-40
2021/11/03 04:47:30;;;;;;;0.10;0.10;;;20.60;53.20;;;;;;5080022;28;20480;-40
2021/11/03 04:49:58;;;;;;;1.08;0.10;;;20.60;53.20;;;;;;5068998;28;20152;-40
2021/11/03 04:52:27;;;;;;;0.10;0.10;;;20.60;53.10;;;;;;5069988;28;20051;-40
2021/11/03 04:54:56;;;;;;;0.13;0.10;;;20.60;53.20;;;;;;5077061;28;20044;-40
2021/11/03 04:57:24;;;;;;;0.10;0.10;;;20.60;53.20;;;;;;5080273;28;20824;-40
2021/11/03 04:59:51;;;;;;;0.20;0.10;;;20.60;53.20;;;;;;5076373;28;20109;-40
2021/11/03 05:02:18;;;;;;;1.20;0.30;;;20.60;53.20;;;;;;5078421;28;20044;-39
2021/11/03 05:04:46;;;;;;;0.10;0.10;;;20.60;53.20;;;;;;5077120;28;20059;-40
2021/11/03 05:07:13;;;;;;;0.10;0.10;;;20.60;53.20;;;;;;5070095;28;20131;-41
2021/11/03 05:09:42;;;;;;;0.55;0.10;;;20.60;53.20;;;;;;5073969;28;20041;-40
2021/11/03 05:12:11;;;;;;;0.50;0.10;;;20.60;53.20;;;;;;5062117;28;20047;-40
2021/11/03 05:14:38;;;;;;;0.38;0.10;;;20.60;53.10;;;;;;5066398;28;20068;-39
2021/11/03 05:17:05;;;;;;;0.10;0.10;;;20.60;53.20;;;;;;5089149;28;20072;-39
2021/11/03 05:19:33;;;;;;;0.68;0.13;;;20.60;53.20;;;;;;5080343;28;20140;-39
2021/11/03 05:22:13;;;;;;;0.10;0.10;;;20.60;53.20;;;;;;5069331;28;20567;-40
2021/11/03 05:24:41;;;;;;;0.77;0.10;;;20.60;53.20;;;;;;5069774;28;20098;-40
2021/11/03 05:27:10;;;;;;;0.45;0.40;;;20.60;53.20;;;;;;5066571;28;20918;-40
2021/11/03 05:29:37;;;;;;;0.30;0.10;;;20.60;53.30;;;;;;5079202;28;20559;-40
2021/11/03 05:32:05;;;;;;;0.50;0.10;;;20.60;53.20;;;;;;5082172;28;20071;-40
2021/11/03 05:34:32;;;;;;;0.20;0.10;;;20.60;53.20;;;;;;5069706;28;20543;-40
2021/11/03 05:36:59;;;;;;;1.23;0.10;;;20.60;53.20;;;;;;5075938;28;20039;-40
2021/11/03 05:39:26;;;;;;;0.10;0.10;;;20.60;53.80;;;;;;5075910;28;20607;-40
2021/11/03 05:41:53;;;;;;;0.65;0.10;;;20.60;53.20;;;;;;5075285;28;20041;-40
2021/11/03 05:44:22;;;;;;;0.20;0.10;;;20.60;53.20;;;;;;5077305;28;20462;-40
2021/11/03 05:46:51;;;;;;;4.63;0.10;;;20.60;53.20;;;;;;5078911;28;20697;-41
2021/11/03 05:49:23;;;;;;;0.20;0.10;;;20.60;53.20;;;;;;5071215;28;20059;-40
2021/11/03 05:51:51;;;;;;;0.10;0.10;;;20.60;53.20;;;;;;5076421;28;20097;-40
2021/11/03 05:54:18;;;;;;;0.10;0.10;;;20.50;53.10;;;;;;5072094;28;20045;-39
2021/11/03 05:56:48;;;;;;;0.20;0.20;;;20.60;53.20;;;;;;5074972;28;20079;-41
2021/11/03 05:59:15;;;;;;;0.28;0.10;;;20.60;53.20;;;;;;5066553;28;20655;-39
2021/11/03 06:01:43;;;;;;;1.48;0.10;;;20.60;53.20;;;;;;5062118;28;20131;-40
2021/11/03 06:04:10;;;;;;;0.43;0.10;;;20.60;53.20;;;;;;5064559;28;20044;-41
2021/11/03 06:06:38;;;;;;;0.35;0.10;;;20.60;53.20;;;;;;5071756;28;20036;-39
2021/11/03 06:09:08;;;;;;;2.42;0.30;;;20.60;53.20;;;;;;5076210;28;20501;-39
2021/11/03 06:11:38;;;;;;;0.63;0.10;;;20.60;53.20;;;;;;5071354;28;20078;-38
2021/11/03 06:14:05;;;;;;;0.98;0.10;;;20.60;53.20;;;;;;5082154;28;20040;-39
2021/11/03 06:16:33;;;;;;;0.50;0.17;;;20.50;53.10;;;;;;5070307;28;20503;-40
2021/11/03 06:19:02;;;;;;;0.10;0.10;;;20.50;53.10;;;;;;5075411;28;20048;-40
2021/11/03 06:21:29;;;;;;;0.47;0.17;;;20.60;53.30;;;;;;5064995;28;20047;-40
2021/11/03 06:23:56;;;;;;;0.30;0.20;;;20.50;53.20;;;;;;5070683;28;20037;-40
2021/11/03 06:26:23;;;;;;;0.10;0.10;;;20.60;53.40;;;;;;5073342;28;20123;-40
2021/11/03 06:28:51;;;;;;;10.13;0.30;;;20.60;53.50;;;;;;5074679;28;20059;-40
2021/11/03 06:31:18;;;;;;;13.77;0.30;;;20.60;53.60;;;;;;5069901;28;20564;-39
2021/11/03 06:33:46;;;;;;;15.43;0.20;;;20.60;54.00;;;;;;5074054;28;20524;-39
2021/11/03 06:36:16;;;;;;;14.23;0.50;;;20.60;53.80;;;;;;5068994;28;20041;-39
2021/11/03 06:38:43;;;;;;;15.70;0.57;;;20.60;53.70;;;;;;5059893;28;20056;-39
2021/11/03 06:41:15;;;;;;;11.02;0.30;;;20.60;53.80;;;;;;5065446;28;20048;-39
2021/11/03 06:43:43;;;;;;;4.25;0.50;;;20.60;53.90;;;;;;5068840;28;20158;-39
2021/11/03 06:46:10;;;;;;;5.20;0.20;;;20.60;53.90;;;;;;5065726;28;20029;-39
2021/11/03 06:48:37;;;;;;;4.97;0.73;;;20.60;54.00;;;;;;5069534;28;20032;-39
2021/11/03 06:51:05;;;;;;;3.38;0.80;;;20.60;54.00;;;;;;5066719;28;20037;-41
2021/11/03 06:53:33;;;;;;;2.20;0.38;;;20.50;53.90;;;;;;5070344;28;20079;-39
2021/11/03 06:56:01;;;;;;;0.40;0.25;;;20.60;54.10;;;;;;5065353;28;20044;-39
2021/11/03 06:58:29;;;;;;;6.20;0.77;;;20.60;54.10;;;;;;5073853;28;20075;-39
2021/11/03 07:00:58;;;;;;;4.57;0.50;;;20.50;54.10;;;;;;5066655;28;20047;-39
2021/11/03 07:03:27;;;;;;;3.40;0.30;;;20.50;54.00;;;;;;5070344;28;20123;-38
2021/11/03 07:05:55;;;;;;;0.43;0.30;;;20.50;54.00;;;;;;5069328;28;20556;-39
2021/11/03 07:08:23;;;;;;;6.22;0.63;;;20.50;54.00;;;;;;5075577;28;20419;-48
2021/11/03 07:10:55;;;;;;;3.63;0.20;;;20.50;54.10;;;;;;5065805;28;20051;-39
2021/11/03 07:13:24;;;;;;;3.30;0.20;;;20.50;54.10;;;;;;5065500;28;20125;-39
2021/11/03 07:15:52;;;;;;;0.70;0.25;;;20.50;54.20;;;;;;5066815;28;20044;-39
2021/11/03 07:18:20;;;;;;;4.38;0.30;;;20.50;54.30;;;;;;5064128;28;20457;-38
2021/11/03 07:20:48;;;;;;;5.00;0.22;;;20.50;54.30;;;;;;5062970;28;20036;-39
2021/11/03 07:23:17;;;;;;;2.50;0.32;;;20.50;54.50;;;;;;5074149;28;21445;-42
2021/11/03 07:25:45;;;;;;;0.98;0.20;;;20.50;54.70;;;;;;5068193;28;20111;-43
2021/11/03 07:28:14;;;;;;;0.93;0.65;;;20.50;54.70;;;;;;5073483;28;20496;-43
2021/11/03 07:30:41;;;;;;;5.95;1.67;;;20.50;54.70;;;;;;5069916;28;20455;-44
2021/11/03 07:33:10;;;;;;;7.00;0.60;;;20.50;54.60;;;;;;5080818;28;20052;-44
2021/11/03 07:35:37;;;;;;;2.85;0.35;;;20.50;54.60;;;;;;5082443;28;24307;-43
2021/11/03 07:38:05;;;;;;;1.25;0.20;;;20.50;54.60;;;;;;5084108;28;20051;-43
2021/11/03 07:40:37;;;;;;;0.88;0.20;;;20.50;54.50;;;;;;5071877;28;20055;-43
2021/11/03 07:43:06;;;;;;;1.13;0.20;;;20.50;54.50;;;;;;5078810;28;20043;-41
2021/11/03 07:45:35;;;;;;;3.55;0.65;;;20.50;54.60;;;;;;5076971;28;20257;-42
2021/11/03 07:48:04;;;;;;;1.08;0.30;;;20.50;54.50;;;;;;5079704;28;20092;-42
2021/11/03 07:50:34;;;;;;;1.17;0.43;;;20.50;54.50;;;;;;5077187;28;20139;-44
2021/11/03 07:53:01;;;;;;;0.40;0.20;;;20.50;54.60;;;;;;5083250;28;20036;-46
2021/11/03 07:55:28;;;;;;;9.57;1.02;;;20.50;54.50;;;;;;5075257;28;20067;-44
2021/11/03 07:57:56;;;;;;;32.28;8.80;;;20.50;54.70;;;;;;5078066;28;20033;-42
2021/11/03 08:00:26;;;;;;;20.60;6.93;;;20.50;55.50;;;;;;5077284;28;20127;-45
2021/11/03 08:02:55;;;;;;;14.13;5.50;;;20.50;56.50;;;;;;5078611;28;20123;-44
2021/11/03 08:05:27;;;;;;;23.30;4.28;;;20.50;56.00;;;;;;5082390;28;20046;-43
2021/11/03 08:07:55;;;;;;;20.60;4.70;;;20.50;55.90;;;;;;5079547;28;20127;-45
2021/11/03 08:10:23;;;;;;;23.02;4.88;;;20.50;55.80;;;;;;5074662;28;20124;-45
2021/11/03 08:12:52;;;;;;;14.45;4.38;;;20.50;55.70;;;;;;5074269;28;20040;-44
2021/11/03 08:15:20;;;;;;;12.63;4.25;;;20.50;55.50;;;;;;5065808;28;20036;-42
2021/11/03 08:17:47;;;;;;;12.75;3.28;;;20.50;55.40;;;;;;5066151;28;20456;-43
2021/11/03 08:20:23;;;;;;;10.70;2.75;;;20.50;55.30;;;;;;5086050;28;20109;-42
2021/11/03 08:22:51;;;;;;;9.63;2.97;;;20.50;55.20;;;;;;5077486;28;20043;-44
2021/11/03 08:25:19;;;;;;;7.85;2.95;;;20.50;55.20;;;;;;5077630;28;20040;-46
2021/11/03 08:27:46;;;;;;;11.98;3.42;;;20.50;55.00;;;;;;5075221;28;20097;-44
2021/11/03 08:30:15;;;;;;;9.13;3.45;;;20.50;54.90;;;;;;5076849;28;20090;-44
2021/11/03 08:32:46;;;;;;;6.78;2.92;;;20.50;54.90;;;;;;5075050;28;20033;-45
2021/11/03 08:35:16;;;;;;;6.78;2.47;;;20.50;54.80;;;;;;5083938;28;20567;-45
2021/11/03 08:37:44;;;;;;;11.48;2.85;;;20.50;54.70;;;;;;5075364;28;20129;-44
2021/11/03 08:40:15;;;;;;;20.52;3.38;;;20.50;54.60;;;;;;5075894;28;20417;-42
2021/11/03 08:42:42;;;;;;;8.52;3.28;;;20.50;54.50;;;;;;5074860;28;20043;-43
2021/11/03 08:45:11;;;;;;;14.32;2.10;;;20.50;54.40;;;;;;5078092;28;20047;-43
2021/11/03 08:47:40;;;;;;;6.80;2.10;;;20.50;54.40;;;;;;5074212;28;20086;-46
2021/11/03 08:50:11;;;;;;;7.75;2.05;;;20.50;54.30;;;;;;5080208;28;20047;-44
2021/11/03 08:52:39;;;;;;;5.63;1.60;;;20.50;54.20;;;;;;5073892;28;20047;-44
2021/11/03 08:55:08;;;;;;;5.88;1.85;;;20.50;54.10;;;;;;5072998;28;20492;-42
2021/11/03 08:57:36;;;;;;;3.08;1.20;;;20.50;54.10;;;;;;5077723;28;20120;-43
2021/11/03 09:00:07;;;;;;;7.18;2.28;;;20.50;54.00;;;;;;5077971;28;20136;-46
2021/11/03 09:02:34;;;;;;;6.28;1.08;;;20.50;54.00;;;;;;5079782;28;20132;-43
2021/11/03 09:05:01;;;;;;;4.45;2.75;;;20.50;53.90;;;;;;5079229;28;20720;-44
2021/11/03 09:07:29;;;;;;;6.93;1.42;;;20.50;53.80;;;;;;5076704;28;20130;-43
2021/11/03 09:09:58;;;;;;;3.47;1.20;;;20.50;53.70;;;;;;5074510;28;20048;-42
2021/11/03 09:12:25;;;;;;;8.55;1.60;;;20.50;53.70;;;;;;5075268;28;20036;-43
2021/11/03 09:14:52;;;;;;;4.05;1.77;;;20.50;53.60;;;;;;5074904;28;20052;-44
2021/11/03 09:17:19;;;;;;;4.57;0.75;;;20.50;54.10;;;;;;5083223;28;20048;-44
2021/11/03 09:19:46;;;;;;;1.63;1.13;;;20.50;53.50;;;;;;5076657;28;20044;-43
2021/11/03 09:22:13;;;;;;;5.10;1.17;;;20.50;53.50;;;;;;5075128;28;20070;-47
2021/11/03 09:24:40;;;;;;;9.07;0.60;;;20.50;53.40;;;;;;5073639;28;20045;-43
2021/11/03 09:27:13;;;;;;;2.50;0.98;;;20.50;53.40;;;;;;5077852;28;20519;-43
2021/11/03 09:29:41;;;;;;;2.67;0.93;;;20.50;53.20;;;;;;5076288;28;20052;-44
2021/11/03 09:32:11;;;;;;;4.82;1.30;;;20.40;53.20;;;;;;5079914;28;20067;-44
2021/11/03 09:34:40;;;;;;;3.88;1.08;;;20.50;53.20;;;;;;5072929;28;20048;-44
2021/11/03 09:37:09;;;;;;;4.97;1.48;;;20.50;53.10;;;;;;5075579;28;20493;-44
2021/11/03 09:39:38;;;;;;;3.15;1.55;;;20.50;53.10;;;;;;5077368;28;20516;-44
2021/11/03 09:42:06;;;;;;;2.72;1.30;;;20.50;53.00;;;;;;5079872;28;20059;-44
2021/11/03 09:44:37;;;;;;;2.85;0.88;;;20.50;53.00;;;;;;5080716;28;20051;-43
2021/11/03 09:47:20;;;;;;;2.17;1.10;;;20.50;52.90;;;;;;5076512;28;20038;-44
2021/11/03 09:49:55;;;;;;;1.88;1.08;;;20.50;52.90;;;;;;5079034;28;20055;-43
2021/11/03 09:52:26;;;;;;;2.30;0.57;;;20.50;52.90;;;;;;5073916;28;20048;-44
2021/11/03 09:54:57;;;;;;;1.77;0.55;;;20.50;52.80;;;;;;5069145;28;20526;-43
2021/11/03 09:57:33;;;;;;;1.60;0.77;;;20.50;52.80;;;;;;5074399;28;20187;-44
2021/11/03 10:00:13;;;;;;;3.75;0.93;;;20.50;52.70;;;;;;5074457;28;20076;-43
2021/11/03 10:03:09;;;;;;;2.30;0.77;;;20.50;52.70;;;;;;5077581;28;20071;-43
2021/11/03 10:05:47;;;;;;;2.65;0.45;;;20.50;52.60;;;;;;5073055;28;20504;-43
2021/11/03 10:08:17;;;;;;;1.50;0.50;;;20.50;52.60;;;;;;5079185;28;20522;-42
2021/11/03 10:10:53;;;;;;;0.35;0.30;;;20.50;52.60;;;;;;5074703;28;20123;-45
2021/11/03 10:13:23;;;;;;;1.02;0.47;;;20.50;52.50;;;;;;5079643;28;20071;-45
2021/11/03 10:15:58;;;;;;;1.77;1.38;;;20.50;52.50;;;;;;5078635;28;20064;-43
2021/11/03 10:18:28;;;;;;;7.10;1.27;;;20.50;52.50;;;;;;5077412;28;20028;-44
2021/11/03 10:21:04;;;;;;;2.03;0.70;;;20.50;52.40;;;;;;5080062;28;20127;-44
2021/11/03 10:23:34;;;;;;;1.98;0.60;;;20.60;52.40;;;;;;5082297;28;20500;-46
2021/11/03 10:26:05;;;;;;;4.15;0.43;;;20.60;52.40;;;;;;5089347;28;20040;-43
2021/11/03 10:28:40;;;;;;;2.55;0.70;;;20.60;52.30;;;;;;5073279;28;20704;-43
2021/11/03 10:31:23;;;;;;;1.00;0.68;;;20.60;52.20;;;;;;5078658;28;20131;-47
2021/11/03 10:33:58;;;;;;;2.00;0.70;;;20.60;52.20;;;;;;5078383;28;20873;-44
2021/11/03 10:36:26;;;;;;;5.13;1.02;;;20.60;52.10;;;;;;5080014;28;20124;-43
2021/11/03 10:38:56;;;;;;;1.55;0.55;;;20.60;52.10;;;;;;5077248;28;20059;-44
2021/11/03 10:41:27;;;;;;;4.60;0.60;;;20.60;52.00;;;;;;5084605;28;20036;-44
2021/11/03 10:44:06;;;;;;;2.15;0.77;;;20.60;51.90;;;;;;5081300;28;20170;-44
2021/11/03 10:46:45;;;;;;;1.80;0.40;;;20.70;51.90;;;;;;5077186;28;20050;-44
2021/11/03 10:49:31;;;;;;;0.70;0.40;;;20.60;51.80;;;;;;5076728;28;20127;-45
2021/11/03 10:52:02;;;;;;;1.85;0.43;;;20.60;51.70;;;;;;5064994;28;20135;-44
2021/11/03 10:54:40;;;;;;;0.77;0.60;;;20.60;51.70;;;;;;5080661;28;20630;-45
2021/11/03 10:57:28;;;;;;;1.13;0.40;;;20.70;51.70;;;;;;5080847;28;20415;-46
2021/11/03 11:00:00;;;;;;;0.82;0.35;;;20.70;51.60;;;;;;5077820;28;20078;-46
2021/11/03 11:02:31;;;;;;;1.33;0.32;;;20.70;51.60;;;;;;5080906;28;20044;-44
2021/11/03 11:05:20;;;;;;;1.27;0.40;;;20.70;51.50;;;;;;5085654;28;20504;-43
2021/11/03 11:07:52;;;;;;;0.90;0.30;;;20.70;51.50;;;;;;5080873;28;20046;-44
2021/11/03 11:10:24;;;;;;;0.73;0.57;;;20.80;51.40;;;;;;5073194;28;20044;-43
2021/11/03 11:12:54;;;;;;;0.68;0.20;;;20.80;51.40;;;;;;5078322;28;20070;-43
2021/11/03 11:15:25;;;;;;;2.25;0.40;;;20.80;51.30;;;;;;5079519;28;20039;-44
2021/11/03 11:18:01;;;;;;;1.38;0.47;;;20.80;51.20;;;;;;5081884;28;20505;-45
2021/11/03 11:20:33;;;;;;;2.38;0.52;;;20.80;51.10;;;;;;5078716;28;20044;-45
2021/11/03 11:23:09;;;;;;;0.55;0.43;;;20.80;51.10;;;;;;5076451;28;20040;-45
2021/11/03 11:25:46;;;;;;;2.58;1.38;;;20.80;51.00;;;;;;5074966;28;20044;-43
2021/11/03 11:28:24;;;;;;;1.42;0.63;;;20.80;50.90;;;;;;5076495;28;20036;-45
2021/11/03 11:30:56;;;;;;;0.73;0.20;;;20.80;50.80;;;;;;5074226;28;20068;-43
2021/11/03 11:33:26;;;;;;;0.68;0.30;;;20.90;50.80;;;;;;5079155;28;20047;-44
2021/11/03 11:36:10;;;;;;;1.33;0.20;;;20.90;50.80;;;;;;5080121;28;20052;-43
2021/11/03 11:38:45;;;;;;;1.75;0.20;;;20.90;50.70;;;;;;5081821;28;20454;-44
2021/11/03 11:41:17;;;;;;;0.40;0.17;;;20.90;50.70;;;;;;5086622;28;20052;-45
2021/11/03 11:43:50;;;;;;;1.55;1.45;;;20.90;50.70;;;;;;5076237;28;20044;-44
2021/11/03 11:46:20;;;;;;;0.55;0.22;;;20.90;50.60;;;;;;5078607;28;20451;-44
2021/11/03 11:48:51;;;;;;;1.58;0.35;;;21.00;50.50;;;;;;5076186;28;20036;-46
2021/11/03 11:51:26;;;;;;;2.38;0.75;;;21.00;50.40;;;;;;5077849;28;20045;-44
2021/11/03 11:54:27;;;;;;;0.50;0.20;;;21.10;50.30;;;;;;5071845;28;20033;-45
2021/11/03 11:57:24;;;;;;;0.25;0.22;;;21.10;50.20;;;;;;5074570;28;20110;-44
2021/11/03 12:00:21;;;;;;;0.30;0.30;;;21.10;50.10;;;;;;5075288;28;20032;-43
2021/11/03 12:03:18;;;;;;;1.30;0.43;;;21.10;50.10;;;;;;5070666;28;20073;-50
2021/11/03 12:05:57;;;;;;;0.30;0.22;;;21.20;50.10;;;;;;5076567;28;20044;-44
2021/11/03 12:08:29;;;;;;;0.75;0.15;;;21.10;50.00;;;;;;5081190;28;20044;-45
2021/11/03 12:11:15;;;;;;;0.30;0.15;;;21.10;49.90;;;;;;5080168;28;20479;-44
2021/11/03 12:14:23;;;;;;;0.43;0.20;;;21.20;49.90;;;;;;5075041;28;20040;-43
2021/11/03 12:16:56;;;;;;;0.88;0.25;;;21.20;49.80;;;;;;5077502;28;20044;-43
2021/11/03 12:19:57;;;;;;;0.40;0.40;;;21.20;49.80;;;;;;5078421;28;20058;-44
2021/11/03 12:22:48;;;;;;;2.75;0.25;;;21.20;49.60;;;;;;4993528;28;20046;-43
2021/11/03 12:25:44;;;;;;;2.25;0.20;;;21.20;49.70;;;;;;4991827;28;20050;-43
2021/11/03 12:28:35;;;;;;;0.20;0.20;;;21.20;49.60;;;;;;4994547;28;20113;-44
2021/11/03 12:31:17;;;;;;;0.40;0.15;;;21.20;49.50;;;;;;4992591;28;20109;-43
2021/11/03 12:34:23;;;;;;;1.30;0.10;;;21.20;49.50;;;;;;4977528;28;20056;-44
2021/11/03 12:36:57;;;;;;;0.95;0.20;;;21.20;49.40;;;;;;4990555;28;20073;-44
2021/11/03 12:39:48;;;;;;;1.33;0.15;;;21.10;49.40;;;;;;4995342;28;20060;-44
2021/11/03 12:42:24;;;;;;;0.90;0.20;;;21.20;49.40;;;;;;4987134;28;20046;-44
2021/11/03 12:44:53;;;;;;;0.32;0.32;;;21.20;49.30;;;;;;4986203;28;20043;-45
2021/11/03 12:47:22;;;;;;;0.50;0.20;;;21.10;49.40;;;;;;5000469;28;20548;-44
2021/11/03 12:50:05;;;;;;;2.28;0.15;;;21.20;49.40;;;;;;4995613;28;20046;-43
2021/11/03 12:52:33;;;;;;;0.98;0.10;;;21.20;49.20;;;;;;5011024;28;20040;-46
2021/11/03 12:55:02;;;;;;;2.35;0.40;;;21.20;49.20;;;;;;5074089;28;20412;-44
2021/11/03 12:57:30;;;;;;;1.40;0.30;;;21.20;49.10;;;;;;5073468;28;20055;-44
2021/11/03 13:00:09;;;;;;;1.00;0.20;;;21.20;49.00;;;;;;5078059;28;20114;-43
2021/11/03 13:02:40;;;;;;;0.10;0.10;;;21.20;49.00;;;;;;5080022;28;20040;-45
2021/11/03 13:05:20;;;;;;;0.20;0.10;;;21.20;49.00;;;;;;5083104;28;20051;-43